Time;durP1;ratioP1;P1;durP2;ratioP2;P2;SDS_P1;SDS_P2;PMS_P1;PMS_P2;Temp;Humidity;BMP_temperature;BMP_pressure;BME280_temperature;BME280_humidity;BME280_pressure;Samples;Min_cycle;Max_cycle;Signal;HPM_P1;HPM_P2
2023/10/04 00:00:21;;;;;;;6.00;1.20;;;18.50;99.90;;;;;;10210215;29;20266;-86
2023/10/04 00:05:25;;;;;;;2.20;1.67;;;18.20;99.90;;;;;;10210941;29;20242;-86
2023/10/04 00:10:28;;;;;;;3.50;2.03;;;18.40;99.90;;;;;;10222247;28;20687;-86
2023/10/04 00:15:31;;;;;;;3.13;1.50;;;18.90;99.90;;;;;;10250243;29;20258;-86
2023/10/04 00:20:34;;;;;;;5.57;2.13;;;18.70;99.90;;;;;;10234324;29;20765;-86
2023/10/04 00:25:38;;;;;;;3.67;1.30;;;18.80;99.90;;;;;;10251169;29;20254;-86
2023/10/04 00:30:43;;;;;;;3.53;1.88;;;18.80;99.90;;;;;;10249399;28;20238;-86
2023/10/04 00:35:46;;;;;;;5.85;1.80;;;18.70;99.90;;;;;;10265818;28;20257;-86
2023/10/04 00:40:50;;;;;;;2.92;1.55;;;19.00;99.90;;;;;;10233173;28;20700;-86
2023/10/04 00:45:53;;;;;;;2.38;1.88;;;18.70;99.90;;;;;;10250508;29;20313;-86
2023/10/04 00:50:59;;;;;;;3.20;1.52;;;19.10;99.90;;;;;;10232545;29;20266;-86
2023/10/04 00:56:03;;;;;;;2.45;1.63;;;19.10;99.90;;;;;;10232820;29;20258;-86
2023/10/04 01:01:06;;;;;;;5.13;2.55;;;19.80;99.90;;;;;;10249015;29;20663;-86
2023/10/04 01:06:09;;;;;;;2.70;1.30;;;20.10;99.90;;;;;;10283894;28;20728;-86
2023/10/04 01:11:12;;;;;;;6.13;1.95;;;19.90;99.90;;;;;;10212364;28;20865;-86
2023/10/04 01:16:15;;;;;;;7.22;1.55;;;20.00;99.90;;;;;;10223183;29;20257;-86
2023/10/04 01:21:18;;;;;;;3.65;2.00;;;20.10;98.80;;;;;;10231806;28;20293;-86
2023/10/04 01:26:25;;;;;;;2.50;1.85;;;20.40;99.90;;;;;;10249388;29;20285;-85
2023/10/04 01:31:29;;;;;;;1.92;1.35;;;20.00;99.90;;;;;;10262215;28;20237;-86
2023/10/04 01:36:32;;;;;;;12.45;2.30;;;20.20;99.90;;;;;;10249657;28;20257;-85
2023/10/04 01:41:38;;;;;;;3.08;1.50;;;20.30;96.40;;;;;;10230834;28;20282;-85
2023/10/04 01:46:42;;;;;;;3.80;1.83;;;20.80;99.90;;;;;;10248013;28;20616;-85
2023/10/04 01:51:45;;;;;;;2.78;1.02;;;20.50;99.20;;;;;;10231250;29;20238;-85
2023/10/04 01:56:50;;;;;;;3.92;1.67;;;21.00;98.20;;;;;;10251880;28;20296;-86
2023/10/04 02:01:53;;;;;;;5.55;1.70;;;20.70;98.40;;;;;;10262134;28;20230;-86
2023/10/04 02:06:55;;;;;;;3.45;1.70;;;20.30;96.60;;;;;;10208100;29;20247;-85
2023/10/04 02:11:58;;;;;;;5.68;1.83;;;19.90;99.30;;;;;;10207942;29;20701;-86
2023/10/04 02:17:03;;;;;;;9.02;1.60;;;20.00;98.80;;;;;;10191610;28;20270;-86
2023/10/04 02:22:06;;;;;;;5.65;1.35;;;20.20;99.80;;;;;;10247648;29;20261;-85
2023/10/04 02:27:09;;;;;;;3.45;1.27;;;20.30;99.90;;;;;;10240432;28;20645;-86
2023/10/04 02:32:13;;;;;;;2.30;1.35;;;20.40;98.20;;;;;;10229304;29;20878;-86
2023/10/04 02:37:19;;;;;;;3.03;1.25;;;20.40;99.10;;;;;;10246671;28;20253;-86
2023/10/04 02:42:21;;;;;;;3.53;1.27;;;20.10;99.20;;;;;;10247245;28;20316;-85
2023/10/04 02:47:26;;;;;;;2.25;1.33;;;19.60;98.80;;;;;;10266524;28;20230;-86
2023/10/04 02:52:28;;;;;;;3.25;1.50;;;19.90;99.80;;;;;;10228463;29;20242;-86
2023/10/04 02:57:31;;;;;;;3.97;1.88;;;20.00;98.10;;;;;;10244188;29;20265;-86
2023/10/04 03:02:34;;;;;;;5.13;1.55;;;19.90;99.20;;;;;;10238013;28;20241;-86
2023/10/04 03:07:37;;;;;;;3.60;1.20;;;20.10;99.50;;;;;;10242258;28;20206;-86
2023/10/04 03:12:41;;;;;;;1.73;0.98;;;20.20;99.50;;;;;;10252283;28;20332;-86
2023/10/04 03:17:44;;;;;;;4.30;1.58;;;20.60;99.90;;;;;;10255462;28;20666;-86
2023/10/04 03:22:54;;;;;;;2.40;1.15;;;20.10;94.20;;;;;;10228433;29;20239;-85
2023/10/04 03:27:57;;;;;;;2.53;1.30;;;19.80;99.90;;;;;;10238418;28;20234;-86
2023/10/04 03:33:00;;;;;;;7.38;1.75;;;20.20;99.80;;;;;;10233196;29;20948;-86
2023/10/04 03:38:06;;;;;;;3.70;1.33;;;20.40;96.50;;;;;;10228648;29;20266;-86
2023/10/04 03:43:12;;;;;;;3.30;1.48;;;20.40;98.20;;;;;;10228068;29;20332;-86
2023/10/04 03:48:18;;;;;;;2.17;1.48;;;20.50;97.70;;;;;;10232631;29;20241;-86
2023/10/04 03:53:29;;;;;;;2.10;1.25;;;20.30;98.20;;;;;;10262571;28;20268;-86
2023/10/04 03:58:35;;;;;;;3.47;0.90;;;20.50;98.90;;;;;;10289906;28;20253;-86
2023/10/04 04:03:38;;;;;;;2.10;1.20;;;20.20;97.50;;;;;;10234244;28;20238;-86
2023/10/04 04:08:42;;;;;;;1.48;1.05;;;20.00;96.60;;;;;;10250250;29;20297;-85
2023/10/04 04:13:44;;;;;;;3.42;1.40;;;20.30;99.50;;;;;;10278440;28;20659;-85
2023/10/04 04:18:51;;;;;;;2.35;1.20;;;20.20;95.20;;;;;;10274232;28;20644;-86
2023/10/04 04:23:55;;;;;;;1.95;1.30;;;19.90;94.90;;;;;;10225418;28;20242;-85
2023/10/04 04:28:59;;;;;;;2.65;1.38;;;20.50;98.20;;;;;;10251364;29;20246;-85
2023/10/04 04:34:03;;;;;;;1.42;0.80;;;20.10;97.70;;;;;;10233255;28;20238;-86
2023/10/04 04:39:09;;;;;;;1.98;1.10;;;20.50;98.40;;;;;;10232798;28;20264;-86
2023/10/04 04:44:20;;;;;;;1.75;0.98;;;20.80;96.70;;;;;;10210194;28;20258;-85
2023/10/04 04:49:24;;;;;;;2.08;0.93;;;21.10;96.60;;;;;;10248609;28;20237;-84
2023/10/04 04:54:27;;;;;;;2.63;1.35;;;21.30;95.80;;;;;;10272250;28;20268;-85
2023/10/04 04:59:31;;;;;;;3.30;1.10;;;21.20;94.50;;;;;;10255165;28;20329;-86
2023/10/04 05:04:34;;;;;;;4.95;1.50;;;21.10;93.80;;;;;;10239827;28;20287;-85
2023/10/04 05:09:37;;;;;;;5.55;1.58;;;20.90;93.30;;;;;;10241690;28;20237;-86
2023/10/04 05:14:39;;;;;;;2.40;1.38;;;21.00;92.50;;;;;;10254501;28;20736;-86
2023/10/04 05:19:42;;;;;;;4.13;1.35;;;21.00;93.90;;;;;;10250626;28;20253;-87
2023/10/04 05:24:45;;;;;;;3.00;1.17;;;20.90;84.80;;;;;;10237749;29;20234;-86
2023/10/04 05:29:48;;;;;;;4.07;1.50;;;20.60;80.50;;;;;;10234669;28;20211;-86
2023/10/04 05:34:50;;;;;;;3.90;1.83;;;20.20;85.30;;;;;;10247062;28;20226;-86
2023/10/04 05:39:53;;;;;;;2.22;1.08;;;19.60;88.10;;;;;;10233372;28;20664;-86
2023/10/04 05:44:55;;;;;;;2.45;0.90;;;19.50;91.30;;;;;;10231917;28;20630;-86
2023/10/04 05:49:58;;;;;;;3.75;1.67;;;19.10;83.80;;;;;;10246137;28;20238;-86
2023/10/04 05:55:01;;;;;;;3.88;1.65;;;18.90;78.90;;;;;;10248445;28;20237;-86
2023/10/04 06:00:27;;;;;;;5.60;1.60;;;19.20;76.10;;;;;;10248366;28;20289;-86
2023/10/04 06:05:28;;;;;;;6.28;1.70;;;19.50;78.00;;;;;;10247120;28;20615;-85
2023/10/04 06:10:31;;;;;;;2.35;1.27;;;19.40;77.60;;;;;;10246890;28;20757;-85
2023/10/04 06:15:35;;;;;;;1.83;1.20;;;20.20;74.50;;;;;;10247774;29;20238;-85
2023/10/04 06:20:40;;;;;;;1.90;1.00;;;20.90;72.10;;;;;;10273934;28;20323;-85
2023/10/04 06:25:46;;;;;;;3.50;1.10;;;21.20;70.40;;;;;;10270702;28;20288;-85
2023/10/04 06:30:49;;;;;;;6.22;2.38;;;20.70;70.50;;;;;;10249058;28;20246;-86
2023/10/04 06:35:52;;;;;;;6.47;1.60;;;21.00;62.30;;;;;;10247054;29;20711;-85
2023/10/04 06:40:55;;;;;;;7.55;2.28;;;20.40;62.50;;;;;;10245389;29;20292;-86
2023/10/04 06:45:59;;;;;;;3.13;1.30;;;20.10;64.20;;;;;;10229714;29;20221;-86
2023/10/04 06:51:02;;;;;;;3.17;1.60;;;20.10;67.50;;;;;;10246895;29;20606;-86
2023/10/04 06:56:04;;;;;;;3.40;1.75;;;20.30;66.40;;;;;;10235295;28;20681;-87
2023/10/04 07:01:07;;;;;;;3.20;1.27;;;20.50;67.60;;;;;;10241851;28;20327;-87
2023/10/04 07:06:09;;;;;;;10.85;2.13;;;20.50;79.50;;;;;;10244748;28;20237;-87
2023/10/04 07:11:13;;;;;;;3.47;1.48;;;20.40;89.90;;;;;;10193905;29;20259;-87
2023/10/04 07:16:16;;;;;;;4.55;2.30;;;20.40;94.10;;;;;;10205721;29;20255;-89
2023/10/04 07:21:19;;;;;;;2.95;1.25;;;20.60;95.70;;;;;;10225655;28;20269;-89
2023/10/04 07:26:21;;;;;;;4.15;1.92;;;20.60;96.80;;;;;;10253219;29;20764;-89
2023/10/04 07:31:24;;;;;;;6.32;1.80;;;20.60;97.10;;;;;;10252310;28;20834;-89
2023/10/04 07:36:27;;;;;;;6.53;1.70;;;20.30;97.60;;;;;;10249830;28;20321;-89
2023/10/04 07:41:29;;;;;;;1.92;1.60;;;20.80;98.30;;;;;;10252048;29;20270;-89
2023/10/04 07:46:32;;;;;;;5.63;1.70;;;20.80;99.90;;;;;;10252189;29;20230;-89
2023/10/04 07:51:34;;;;;;;1.95;1.25;;;20.60;97.60;;;;;;10235010;29;20241;-89
2023/10/04 07:56:37;;;;;;;4.22;1.52;;;20.80;99.90;;;;;;10251678;28;20744;-89
2023/10/04 08:01:40;;;;;;;3.30;1.30;;;20.70;99.90;;;;;;10251873;28;20265;-89
2023/10/04 08:06:49;;;;;;;3.13;1.75;;;21.20;99.90;;;;;;10256070;28;20292;-90
2023/10/04 08:11:52;;;;;;;5.32;1.50;;;21.00;99.90;;;;;;10260727;28;20307;-89
2023/10/04 08:16:54;;;;;;;4.20;1.60;;;21.00;99.90;;;;;;10251577;29;20257;-88
2023/10/04 08:21:57;;;;;;;1.48;1.20;;;21.30;99.90;;;;;;10251956;28;20222;-88
2023/10/04 08:27:01;;;;;;;3.70;1.88;;;21.00;99.90;;;;;;10234720;28;20241;-88
2023/10/04 08:32:03;;;;;;;2.88;1.33;;;20.50;99.90;;;;;;10254920;28;20245;-88
2023/10/04 08:37:07;;;;;;;4.20;1.65;;;20.50;99.90;;;;;;10256641;28;20301;-88
2023/10/04 08:42:10;;;;;;;6.75;1.73;;;20.60;99.90;;;;;;10247643;28;20724;-88
2023/10/04 08:47:13;;;;;;;1.92;1.42;;;21.00;99.90;;;;;;10248970;29;20234;-88
2023/10/04 08:52:23;;;;;;;3.42;1.52;;;21.20;99.90;;;;;;10232490;29;20238;-88
2023/10/04 08:57:26;;;;;;;1.42;0.82;;;21.20;99.90;;;;;;10248781;29;20316;-89
2023/10/04 09:02:31;;;;;;;1.55;1.15;;;21.40;99.90;;;;;;10247041;29;20275;-88
2023/10/04 09:07:34;;;;;;;2.28;1.42;;;21.20;99.90;;;;;;10248418;29;20293;-88
2023/10/04 09:12:37;;;;;;;1.77;1.23;;;21.30;99.90;;;;;;10248461;29;20696;-88
2023/10/04 09:18:02;;;;;;;5.93;1.80;;;21.80;99.90;;;;;;10249131;29;20257;-89
2023/10/04 09:23:16;;;;;;;3.55;1.55;;;21.70;99.90;;;;;;10248816;29;20669;-88
2023/10/04 09:28:19;;;;;;;6.20;2.03;;;21.70;99.90;;;;;;10247027;29;20246;-89
2023/10/04 09:33:28;;;;;;;2.22;1.30;;;21.90;99.90;;;;;;10245741;29;20690;-87
2023/10/04 09:38:35;;;;;;;3.67;1.63;;;21.60;99.90;;;;;;10247000;29;20322;-89
2023/10/04 09:43:39;;;;;;;1.88;1.38;;;21.90;99.90;;;;;;10244935;28;20265;-88
2023/10/04 09:48:46;;;;;;;2.17;1.40;;;21.70;99.90;;;;;;10230664;29;20246;-88
2023/10/04 09:53:49;;;;;;;4.22;1.38;;;21.70;99.90;;;;;;10246934;29;20253;-88
2023/10/04 09:58:54;;;;;;;3.58;0.95;;;21.70;99.90;;;;;;10231524;29;20282;-88
2023/10/04 10:04:05;;;;;;;2.55;1.65;;;21.50;99.90;;;;;;10207987;29;20617;-88
2023/10/04 10:09:12;;;;;;;1.95;1.17;;;21.70;99.90;;;;;;10207762;29;20238;-89
2023/10/04 10:14:15;;;;;;;2.63;1.92;;;21.80;99.90;;;;;;10206665;29;20242;-89
2023/10/04 10:19:18;;;;;;;2.80;1.10;;;21.50;99.90;;;;;;10232012;29;20289;-89
2023/10/04 10:24:21;;;;;;;2.53;1.83;;;21.50;99.90;;;;;;10244949;29;20234;-89
2023/10/04 10:29:29;;;;;;;1.88;1.40;;;21.90;99.90;;;;;;10245820;29;20242;-89
2023/10/04 10:34:32;;;;;;;1.45;1.00;;;21.80;99.90;;;;;;10227032;29;20245;-87
2023/10/04 10:39:46;;;;;;;3.10;1.52;;;22.00;99.90;;;;;;10201314;29;20302;-88
2023/10/04 10:44:57;;;;;;;3.15;1.40;;;21.20;99.90;;;;;;10237315;29;20261;-87
2023/10/04 10:50:01;;;;;;;3.03;1.50;;;21.50;99.90;;;;;;10233956;28;20292;-87
2023/10/04 10:55:16;;;;;;;3.08;1.13;;;21.50;99.90;;;;;;10250466;28;20658;-87
2023/10/04 11:00:19;;;;;;;1.63;1.50;;;21.20;99.90;;;;;;10234223;29;20285;-87
2023/10/04 11:05:22;;;;;;;4.40;1.55;;;21.40;99.90;;;;;;10236190;29;20696;-87
2023/10/04 11:10:25;;;;;;;2.20;1.15;;;21.10;99.90;;;;;;10251987;29;20292;-87
2023/10/04 11:15:29;;;;;;;5.22;1.75;;;21.20;99.90;;;;;;10249805;29;20731;-87
2023/10/04 11:20:36;;;;;;;4.57;1.42;;;21.20;99.90;;;;;;10242285;29;20770;-88
2023/10/04 11:25:38;;;;;;;3.08;1.55;;;21.20;99.90;;;;;;10236095;29;20605;-87
2023/10/04 11:30:41;;;;;;;2.65;1.33;;;21.10;99.90;;;;;;10250216;29;20687;-87
2023/10/04 11:35:47;;;;;;;1.60;1.10;;;21.10;99.90;;;;;;10252415;29;20304;-87
2023/10/04 11:40:51;;;;;;;2.65;1.08;;;21.40;99.90;;;;;;10235084;29;20946;-88
2023/10/04 11:46:00;;;;;;;3.55;1.10;;;21.80;99.90;;;;;;10234637;29;20261;-88
2023/10/04 11:51:04;;;;;;;5.10;1.70;;;21.80;99.90;;;;;;10253176;28;20242;-87
2023/10/04 11:56:09;;;;;;;2.45;1.40;;;21.70;99.90;;;;;;10234324;29;20218;-88
2023/10/04 12:01:19;;;;;;;4.15;1.60;;;21.50;99.90;;;;;;10250933;29;20250;-88
2023/10/04 12:06:24;;;;;;;1.30;1.05;;;21.60;99.90;;;;;;10235348;28;20264;-87
2023/10/04 12:11:33;;;;;;;3.65;1.40;;;21.60;99.90;;;;;;10212483;29;20255;-88
2023/10/04 12:16:41;;;;;;;2.55;1.10;;;21.90;99.90;;;;;;10197044;29;20251;-87
2023/10/04 12:21:44;;;;;;;1.67;1.10;;;21.50;99.90;;;;;;10217682;29;20658;-87
2023/10/04 12:26:47;;;;;;;5.50;1.60;;;21.30;99.90;;;;;;10250132;28;20303;-88
2023/10/04 12:31:50;;;;;;;1.33;1.05;;;21.70;99.90;;;;;;10250303;29;20245;-88
2023/10/04 12:36:56;;;;;;;3.35;1.45;;;22.10;99.90;;;;;;10250532;29;20309;-88
2023/10/04 12:42:02;;;;;;;3.30;1.00;;;21.80;99.90;;;;;;10249793;29;20261;-88
2023/10/04 12:47:08;;;;;;;3.25;1.40;;;21.30;99.90;;;;;;10250486;29;20262;-87
2023/10/04 12:52:12;;;;;;;2.78;1.40;;;21.40;99.90;;;;;;10233092;29;20237;-87
2023/10/04 12:57:15;;;;;;;3.75;1.20;;;21.10;99.90;;;;;;10244000;29;20231;-84
2023/10/04 13:02:18;;;;;;;8.27;1.73;;;21.30;99.20;;;;;;10211562;29;20624;-86
2023/10/04 13:07:21;;;;;;;7.85;1.73;;;21.00;88.80;;;;;;10210611;29;20290;-86
2023/10/04 13:12:24;;;;;;;4.03;1.60;;;21.00;90.40;;;;;;10207895;29;20302;-86
2023/10/04 13:17:26;;;;;;;3.97;1.48;;;20.90;90.40;;;;;;10209528;29;20630;-86
2023/10/04 13:22:29;;;;;;;6.47;2.08;;;21.30;87.40;;;;;;10208441;29;20234;-86
2023/10/04 13:27:32;;;;;;;13.63;2.60;;;21.30;87.50;;;;;;10231545;29;20772;-85
2023/10/04 13:32:36;;;;;;;8.02;2.85;;;21.20;81.90;;;;;;10244025;29;20253;-85
2023/10/04 13:37:39;;;;;;;9.73;2.85;;;21.70;77.50;;;;;;10248461;29;20277;-85
2023/10/04 13:42:44;;;;;;;9.82;2.90;;;20.80;88.90;;;;;;10231036;29;20308;-85
2023/10/04 13:47:46;;;;;;;8.65;2.38;;;21.10;90.50;;;;;;10229358;29;20230;-85
2023/10/04 13:52:50;;;;;;;9.35;2.47;;;21.40;90.00;;;;;;10230683;29;20246;-85
2023/10/04 13:57:55;;;;;;;4.82;2.30;;;21.50;91.30;;;;;;10267038;28;20258;-85
2023/10/04 14:02:59;;;;;;;6.22;2.20;;;21.60;85.70;;;;;;10245298;29;20689;-85
2023/10/04 14:08:02;;;;;;;9.15;2.05;;;21.40;91.40;;;;;;10246416;29;20249;-85
2023/10/04 14:13:05;;;;;;;2.63;1.70;;;21.80;91.90;;;;;;10229728;29;20242;-85
2023/10/04 14:18:08;;;;;;;4.35;2.13;;;21.70;88.80;;;;;;10247174;29;20281;-85
2023/10/04 14:23:12;;;;;;;8.98;2.15;;;22.10;84.70;;;;;;10246529;29;20257;-85
2023/10/04 14:28:15;;;;;;;3.53;1.52;;;22.20;92.50;;;;;;10226686;29;20242;-85
2023/10/04 14:33:19;;;;;;;3.78;1.95;;;22.40;94.50;;;;;;10234060;29;20246;-85
2023/10/04 14:38:22;;;;;;;6.95;2.17;;;21.90;90.70;;;;;;10229666;29;20316;-84
2023/10/04 14:43:24;;;;;;;2.70;1.73;;;21.70;93.40;;;;;;10228543;28;20270;-84
2023/10/04 14:48:28;;;;;;;5.20;1.63;;;21.60;96.40;;;;;;10254941;28;20235;-84
2023/10/04 14:53:30;;;;;;;7.63;1.77;;;21.50;92.90;;;;;;10244929;29;20676;-84
2023/10/04 14:58:33;;;;;;;6.45;1.98;;;21.40;91.10;;;;;;10244218;29;20308;-84
2023/10/04 15:03:36;;;;;;;3.20;1.45;;;22.00;86.00;;;;;;10235792;29;20234;-84
2023/10/04 15:08:39;;;;;;;9.82;2.20;;;22.00;94.60;;;;;;10238810;29;20234;-84
2023/10/04 15:13:42;;;;;;;5.78;1.92;;;21.90;93.50;;;;;;10242192;29;20792;-85
2023/10/04 15:18:46;;;;;;;2.72;1.40;;;22.00;84.40;;;;;;10215352;29;20258;-85
2023/10/04 15:23:48;;;;;;;5.60;1.58;;;22.40;80.50;;;;;;10242159;29;20295;-84
2023/10/04 15:28:51;;;;;;;5.40;1.95;;;22.00;80.20;;;;;;10196160;29;20242;-84
2023/10/04 15:33:54;;;;;;;3.53;1.60;;;22.10;80.10;;;;;;10244276;29;20241;-84
2023/10/04 15:38:57;;;;;;;3.15;1.45;;;22.20;81.10;;;;;;10242557;29;20309;-83
2023/10/04 15:44:01;;;;;;;3.28;1.50;;;21.50;87.40;;;;;;10250161;28;20253;-86
2023/10/04 15:49:05;;;;;;;6.25;3.17;;;21.90;86.50;;;;;;10250448;29;20326;-86
2023/10/04 15:54:08;;;;;;;3.60;1.75;;;20.80;89.10;;;;;;10219956;29;20238;-86
2023/10/04 15:59:11;;;;;;;4.20;2.00;;;20.30;93.10;;;;;;10232623;29;20254;-86
2023/10/04 16:04:13;;;;;;;2.13;1.50;;;20.50;95.20;;;;;;10252376;29;20202;-86
2023/10/04 16:09:16;;;;;;;3.78;1.90;;;20.50;96.50;;;;;;10233458;29;20254;-86
2023/10/04 16:14:19;;;;;;;3.90;2.15;;;20.70;97.00;;;;;;10216717;29;20242;-86
2023/10/04 16:19:22;;;;;;;4.72;2.38;;;20.20;96.80;;;;;;10246936;28;20253;-92
2023/10/04 16:24:25;;;;;;;4.40;2.80;;;18.40;99.90;;;;;;10229094;29;20311;-86
2023/10/04 16:29:28;;;;;;;6.78;3.05;;;15.80;96.00;;;;;;10250402;29;20713;-86
2023/10/04 16:34:30;;;;;;;7.20;3.10;;;15.50;98.30;;;;;;10233711;29;20261;-86
2023/10/04 16:39:33;;;;;;;7.68;2.78;;;15.10;99.90;;;;;;10249402;29;20262;-87
2023/10/04 16:44:36;;;;;;;9.98;3.33;;;14.90;99.90;;;;;;10249853;29;20269;-87
2023/10/04 16:49:38;;;;;;;3.65;2.50;;;14.50;99.90;;;;;;10232352;29;20250;-86
2023/10/04 16:54:41;;;;;;;5.43;3.47;;;14.20;99.90;;;;;;10248573;28;20242;-87
2023/10/04 16:59:44;;;;;;;6.20;4.00;;;;;;;;;;10232783;29;20250;-86
2023/10/04 17:04:50;;;;;;;12.48;3.45;;;;;;;;;;10249890;29;20642;-86
2023/10/04 17:09:55;;;;;;;8.32;3.33;;;;;;;;;;10232762;29;20261;-87
2023/10/04 17:14:58;;;;;;;6.50;3.55;;;13.70;99.90;;;;;;10231769;29;20293;-86
2023/10/04 17:20:01;;;;;;;9.10;3.30;;;14.00;99.90;;;;;;10231218;29;20265;-87
2023/10/04 17:25:04;;;;;;;4.80;2.97;;;13.60;99.90;;;;;;10248874;29;20234;-87
2023/10/04 17:30:13;;;;;;;12.15;4.85;;;13.60;99.90;;;;;;10248762;29;20298;-87
2023/10/04 17:35:18;;;;;;;19.13;6.45;;;13.20;99.90;;;;;;10206704;29;20246;-87
2023/10/04 17:40:21;;;;;;;16.33;6.45;;;12.80;99.90;;;;;;10209066;29;20263;-87
2023/10/04 17:45:24;;;;;;;11.60;6.35;;;12.60;99.90;;;;;;10208154;29;20262;-87
2023/10/04 17:50:27;;;;;;;10.88;6.15;;;12.30;99.90;;;;;;10241125;28;20245;-87
2023/10/04 17:55:30;;;;;;;14.68;6.43;;;12.50;99.90;;;;;;10247838;29;20706;-87
2023/10/04 18:00:33;;;;;;;8.52;5.50;;;12.20;99.90;;;;;;10229934;29;21036;-87
2023/10/04 18:05:37;;;;;;;12.80;6.07;;;12.00;99.90;;;;;;10247634;28;20238;-87
2023/10/04 18:10:41;;;;;;;6.57;3.67;;;11.90;99.90;;;;;;10231891;29;20237;-89
2023/10/04 18:15:44;;;;;;;6.53;3.88;;;12.00;99.90;;;;;;10250347;29;20269;-90
2023/10/04 18:20:47;;;;;;;9.10;5.45;;;12.80;99.90;;;;;;10248870;29;20660;-89
2023/10/04 18:25:50;;;;;;;9.50;6.10;;;12.90;99.90;;;;;;10233367;29;20258;-89
2023/10/04 18:30:54;;;;;;;10.75;7.38;;;12.90;99.90;;;;;;9602007;28;10001091;-88
2023/10/04 18:35:57;;;;;;;12.13;8.00;;;12.90;99.90;;;;;;10248891;29;20481;-88
2023/10/04 18:40:59;;;;;;;14.18;9.35;;;12.90;99.90;;;;;;10246444;29;20289;-88
2023/10/04 18:46:02;;;;;;;7.70;5.15;;;12.90;99.90;;;;;;10224462;29;20306;-88
2023/10/04 18:51:05;;;;;;;15.57;5.70;;;13.20;99.90;;;;;;10246896;29;20277;-88
2023/10/04 18:56:08;;;;;;;6.40;4.22;;;14.00;99.90;;;;;;10249637;29;20228;-89
2023/10/04 19:01:11;;;;;;;7.85;5.00;;;14.00;99.90;;;;;;10232561;29;20277;-88
2023/10/04 19:06:13;;;;;;;8.48;4.68;;;14.40;99.90;;;;;;10245940;29;20262;-89
2023/10/04 19:11:23;;;;;;;9.95;5.50;;;14.90;99.90;;;;;;10193319;29;20207;-88
2023/10/04 19:16:25;;;;;;;7.90;5.50;;;15.10;99.90;;;;;;10224356;28;20927;-87
2023/10/04 19:21:28;;;;;;;6.72;4.10;;;15.00;99.90;;;;;;10230488;29;20878;-89
2023/10/04 19:26:31;;;;;;;8.40;5.20;;;15.00;99.90;;;;;;10257097;29;20198;-89
2023/10/04 19:31:34;;;;;;;8.35;4.88;;;15.20;99.90;;;;;;10233278;29;20222;-89
2023/10/04 19:36:37;;;;;;;10.68;6.35;;;14.80;99.90;;;;;;10230001;29;20214;-89
2023/10/04 19:41:40;;;;;;;5.15;3.47;;;15.00;99.90;;;;;;10228963;29;20238;-88
2023/10/04 19:46:42;;;;;;;10.05;5.78;;;14.40;99.90;;;;;;10260912;29;20238;-88
2023/10/04 19:51:46;;;;;;;9.13;5.95;;;14.30;99.90;;;;;;10262382;29;20632;-87
2023/10/04 19:56:49;;;;;;;9.35;5.65;;;13.90;99.90;;;;;;10244309;29;20210;-88
2023/10/04 20:01:52;;;;;;;10.18;6.47;;;14.30;99.90;;;;;;10216722;29;20235;-87
2023/10/04 20:06:55;;;;;;;8.43;4.65;;;14.30;99.90;;;;;;10216384;29;20257;-87
2023/10/04 20:11:58;;;;;;;7.18;4.25;;;14.40;99.90;;;;;;10259045;29;20620;-88
2023/10/04 20:17:00;;;;;;;5.05;4.20;;;14.70;99.90;;;;;;10243637;29;20214;-87
2023/10/04 20:22:03;;;;;;;7.72;4.68;;;14.90;99.90;;;;;;10242564;29;20602;-87
2023/10/04 20:27:06;;;;;;;8.93;4.88;;;15.20;99.90;;;;;;10300553;28;20187;-87
2023/10/04 20:32:10;;;;;;;8.73;4.43;;;15.20;99.90;;;;;;10303781;28;20396;-87
2023/10/04 20:37:12;;;;;;;10.50;5.20;;;15.10;99.90;;;;;;10290454;28;20207;-88
2023/10/04 20:42:15;;;;;;;9.60;4.82;;;15.20;99.90;;;;;;10283232;28;20242;-87
2023/10/04 20:47:18;;;;;;;5.95;3.80;;;15.30;99.90;;;;;;10270077;28;20203;-87
2023/10/04 20:52:21;;;;;;;5.35;2.92;;;15.50;99.90;;;;;;10303542;28;20186;-88
2023/10/04 20:57:24;;;;;;;10.63;4.80;;;16.20;99.90;;;;;;10288427;28;20183;-88
2023/10/04 21:02:27;;;;;;;5.47;3.97;;;16.70;99.90;;;;;;10284621;28;20246;-88
2023/10/04 21:07:30;;;;;;;5.30;4.00;;;16.80;99.90;;;;;;10297154;28;20175;-89
2023/10/04 21:12:32;;;;;;;9.00;3.58;;;17.00;99.90;;;;;;10302044;28;20217;-87
2023/10/04 21:17:35;;;;;;;8.07;4.70;;;16.90;99.90;;;;;;10299782;28;20187;-87
2023/10/04 21:22:41;;;;;;;5.60;3.17;;;17.00;99.90;;;;;;10300870;28;20210;-88
2023/10/04 21:27:47;;;;;;;2.85;2.03;;;17.00;99.90;;;;;;10294513;28;20202;-88
2023/10/04 21:32:58;;;;;;;7.53;4.63;;;17.20;99.90;;;;;;10301609;28;20187;-87
2023/10/04 21:38:07;;;;;;;8.57;3.83;;;17.20;99.90;;;;;;10289371;28;20178;-88
2023/10/04 21:43:10;;;;;;;6.75;4.38;;;17.40;99.90;;;;;;10285433;28;20269;-87
2023/10/04 21:48:17;;;;;;;4.72;3.40;;;17.20;99.90;;;;;;10274859;28;20194;-88
2023/10/04 21:53:20;;;;;;;6.88;4.53;;;17.00;99.90;;;;;;10302595;28;20206;-88
2023/10/04 21:58:23;;;;;;;10.93;5.90;;;16.60;99.90;;;;;;10302164;28;20182;-88
2023/10/04 22:03:25;;;;;;;10.20;6.53;;;16.90;99.90;;;;;;10297716;28;20222;-88
2023/10/04 22:08:29;;;;;;;5.35;3.33;;;16.60;99.90;;;;;;10317381;28;20174;-88
2023/10/04 22:13:32;;;;;;;6.47;3.83;;;16.90;99.90;;;;;;10314358;28;20210;-88
2023/10/04 22:18:35;;;;;;;4.13;2.70;;;17.30;99.90;;;;;;10294060;28;20210;-88
2023/10/04 22:23:38;;;;;;;4.57;2.55;;;17.50;99.90;;;;;;10300882;28;20236;-88
2023/10/04 22:28:41;;;;;;;6.28;4.47;;;17.60;99.90;;;;;;10283294;28;20190;-88
2023/10/04 22:33:44;;;;;;;5.90;3.83;;;17.20;99.90;;;;;;10278902;28;20190;-88
2023/10/04 22:38:50;;;;;;;5.57;3.85;;;16.90;99.90;;;;;;10301429;28;20202;-88
2023/10/04 22:43:52;;;;;;;8.05;4.55;;;16.90;99.90;;;;;;10287078;28;20226;-88
2023/10/04 22:48:55;;;;;;;5.60;3.53;;;16.80;99.90;;;;;;10278904;28;20203;-88
2023/10/04 22:53:59;;;;;;;7.90;5.25;;;16.40;99.90;;;;;;10294691;28;20222;-88
2023/10/04 22:59:01;;;;;;;6.35;3.63;;;16.10;99.90;;;;;;10287119;28;20206;-88
2023/10/04 23:04:06;;;;;;;6.10;3.30;;;16.30;99.90;;;;;;10303602;28;20230;-88
2023/10/04 23:09:10;;;;;;;9.00;4.50;;;16.40;99.90;;;;;;10287659;28;20225;-88
2023/10/04 23:14:14;;;;;;;5.22;3.70;;;17.00;99.90;;;;;;10302544;28;20194;-88
2023/10/04 23:19:16;;;;;;;7.28;4.47;;;17.10;99.90;;;;;;10291611;28;20238;-88
2023/10/04 23:24:21;;;;;;;9.75;4.95;;;16.40;99.90;;;;;;10293419;28;20242;-88
2023/10/04 23:29:23;;;;;;;5.13;2.67;;;16.70;99.90;;;;;;10303117;28;20210;-88
2023/10/04 23:34:26;;;;;;;5.32;2.60;;;16.60;99.90;;;;;;10295386;28;20207;-88
2023/10/04 23:39:29;;;;;;;6.32;3.63;;;16.80;99.90;;;;;;10271544;29;20218;-88
2023/10/04 23:44:32;;;;;;;7.20;3.78;;;16.90;99.90;;;;;;10301363;28;20243;-88
2023/10/04 23:49:38;;;;;;;4.60;3.33;;;16.80;99.90;;;;;;10298865;28;20195;-88
2023/10/04 23:54:41;;;;;;;5.55;4.00;;;17.30;99.90;;;;;;10257716;28;20186;-88
2023/10/04 23:59:43;;;;;;;4.25;2.58;;;17.30;99.90;;;;;;10302354;28;20214;-88
